Time;durP1;ratioP1;P1;durP2;ratioP2;P2;SDS_P1;SDS_P2;PMS_P1;PMS_P2;Temp;Humidity;BMP_temperature;BMP_pressure;BME280_temperature;BME280_humidity;BME280_pressure;Samples;Min_cycle;Max_cycle;Signal;HPM_P1;HPM_P2
2021/08/21 00:02:37;;;;;;;14.38;10.18;;;20.00;99.90;;;;;;5049048;28;20530;-67
2021/08/21 00:05:41;;;;;;;16.65;9.57;;;19.90;99.90;;;;;;5049387;28;20407;-67
2021/08/21 00:08:45;;;;;;;15.18;9.30;;;19.80;99.90;;;;;;5048797;28;20044;-67
2021/08/21 00:11:49;;;;;;;15.85;9.90;;;19.80;99.90;;;;;;5049110;28;20407;-67
2021/08/21 00:14:54;;;;;;;24.00;10.25;;;19.80;99.90;;;;;;5049151;28;20498;-67
2021/08/21 00:17:58;;;;;;;17.13;10.07;;;19.90;99.90;;;;;;5049444;28;20063;-67
2021/08/21 00:21:02;;;;;;;23.27;10.00;;;19.80;99.90;;;;;;5048871;28;20064;-67
2021/08/21 00:24:06;;;;;;;20.75;10.05;;;19.90;99.90;;;;;;5049472;28;20391;-67
2021/08/21 00:27:11;;;;;;;13.63;8.82;;;19.90;99.90;;;;;;5049010;28;20045;-67
2021/08/21 00:30:15;;;;;;;12.52;8.10;;;19.90;99.90;;;;;;5049137;28;20380;-67
2021/08/21 00:33:19;;;;;;;16.58;8.45;;;19.90;99.90;;;;;;5048188;28;20052;-67
2021/08/21 00:36:23;;;;;;;15.57;7.82;;;19.90;99.90;;;;;;5048904;28;20052;-67
2021/08/21 00:39:27;;;;;;;11.43;7.50;;;19.90;99.90;;;;;;5052196;28;20048;-67
2021/08/21 00:42:34;;;;;;;13.70;8.18;;;19.90;99.90;;;;;;5052630;28;20044;-67
2021/08/21 00:45:39;;;;;;;17.40;7.63;;;19.90;99.90;;;;;;5052473;28;20059;-67
2021/08/21 00:48:43;;;;;;;12.70;8.02;;;19.90;99.90;;;;;;5052156;28;20051;-67
2021/08/21 00:51:47;;;;;;;13.98;8.10;;;19.90;99.90;;;;;;5051320;28;20044;-67
2021/08/21 00:54:56;;;;;;;18.05;8.00;;;19.90;99.90;;;;;;5052467;28;20040;-67
2021/08/21 00:58:00;;;;;;;11.50;8.35;;;19.80;99.90;;;;;;5051064;28;20055;-67
2021/08/21 01:01:04;;;;;;;18.88;9.75;;;19.80;99.90;;;;;;5051309;28;20056;-67
2021/08/21 01:04:09;;;;;;;15.90;8.40;;;19.90;99.90;;;;;;5051533;28;20044;-67
2021/08/21 01:07:17;;;;;;;15.63;8.57;;;19.90;99.90;;;;;;5052247;28;20074;-67
2021/08/21 01:10:21;;;;;;;15.18;8.35;;;19.90;99.90;;;;;;5051120;28;20048;-67
2021/08/21 01:13:28;;;;;;;12.68;8.45;;;19.90;99.90;;;;;;5051389;28;20251;-67
2021/08/21 01:16:33;;;;;;;13.35;7.88;;;19.90;99.90;;;;;;5052110;28;20052;-67
2021/08/21 01:19:41;;;;;;;14.23;7.78;;;19.90;99.90;;;;;;5050869;28;20044;-67
2021/08/21 01:22:48;;;;;;;13.07;7.97;;;19.80;99.90;;;;;;5039403;28;20046;-67
2021/08/21 01:26:01;;;;;;;14.77;8.05;;;19.80;99.90;;;;;;5051150;28;20070;-67
2021/08/21 01:29:12;;;;;;;13.07;8.05;;;19.80;99.90;;;;;;5050487;28;20499;-67
2021/08/21 01:32:29;;;;;;;13.38;8.38;;;19.80;99.90;;;;;;5051040;28;20818;-67
2021/08/21 01:35:33;;;;;;;10.52;6.88;;;19.80;99.90;;;;;;5050878;28;20410;-67
2021/08/21 01:38:57;;;;;;;14.10;7.15;;;19.80;99.90;;;;;;5050713;28;20526;-67
2021/08/21 01:42:40;;;;;;;14.18;8.32;;;19.80;99.90;;;;;;5051609;28;20036;-67
2021/08/21 01:45:44;;;;;;;15.98;8.80;;;19.80;99.90;;;;;;5051019;28;20049;-67
2021/08/21 01:48:49;;;;;;;13.48;8.45;;;19.70;99.90;;;;;;5050506;28;20067;-67
2021/08/21 01:51:54;;;;;;;15.43;8.82;;;19.60;99.90;;;;;;5038621;28;20052;-67
2021/08/21 01:55:03;;;;;;;16.58;9.88;;;19.50;99.90;;;;;;5050639;28;20048;-67
2021/08/21 01:58:17;;;;;;;16.27;9.90;;;19.30;99.90;;;;;;5050313;28;20647;-67
2021/08/21 02:01:36;;;;;;;17.35;10.32;;;19.10;99.90;;;;;;5050513;28;20641;-67
2021/08/21 02:05:05;;;;;;;16.65;10.23;;;19.00;99.90;;;;;;5050577;28;20215;-67
2021/08/21 02:08:09;;;;;;;17.52;10.98;;;18.80;99.90;;;;;;5050594;28;20052;-67
2021/08/21 02:11:15;;;;;;;15.10;10.98;;;18.80;99.90;;;;;;5041905;28;20514;-67
2021/08/21 02:14:20;;;;;;;16.48;10.43;;;18.80;99.90;;;;;;5034323;28;20486;-67
2021/08/21 02:17:24;;;;;;;12.82;9.23;;;18.80;99.90;;;;;;5049664;28;20048;-67
2021/08/21 02:20:43;;;;;;;17.83;10.32;;;18.70;99.90;;;;;;5048741;28;20040;-67
2021/08/21 02:23:58;;;;;;;16.45;9.52;;;18.60;99.90;;;;;;5049522;28;20048;-67
2021/08/21 02:27:04;;;;;;;16.95;11.35;;;18.40;99.90;;;;;;5048996;28;20044;-67
2021/08/21 02:30:09;;;;;;;16.85;10.80;;;18.40;99.90;;;;;;5048611;28;20044;-67
2021/08/21 02:33:13;;;;;;;17.92;10.68;;;18.50;99.90;;;;;;5049332;28;20510;-67
2021/08/21 02:36:17;;;;;;;17.50;11.75;;;18.50;99.90;;;;;;5049660;28;20044;-66
2021/08/21 02:39:22;;;;;;;24.33;12.77;;;18.60;99.90;;;;;;5048974;28;20415;-67
2021/08/21 02:42:26;;;;;;;20.23;12.50;;;18.60;99.90;;;;;;5050312;28;20519;-67
2021/08/21 02:45:30;;;;;;;23.25;11.25;;;18.70;99.90;;;;;;5047863;28;20048;-67
2021/08/21 02:48:34;;;;;;;18.70;11.15;;;18.70;99.90;;;;;;5037233;28;20040;-67
2021/08/21 02:51:38;;;;;;;14.75;9.70;;;18.70;99.90;;;;;;5030259;28;20060;-67
2021/08/21 02:54:42;;;;;;;14.82;9.00;;;18.70;99.90;;;;;;5044335;28;20044;-67
2021/08/21 02:57:47;;;;;;;19.23;8.95;;;18.70;99.90;;;;;;5049148;28;20036;-67
2021/08/21 03:00:52;;;;;;;12.35;8.07;;;18.70;99.90;;;;;;5047290;28;20032;-67
2021/08/21 03:03:56;;;;;;;15.57;9.27;;;18.80;99.90;;;;;;5038442;28;20049;-66
2021/08/21 03:07:01;;;;;;;19.02;8.68;;;18.80;99.90;;;;;;5048288;28;20126;-67
2021/08/21 03:10:31;;;;;;;15.82;8.95;;;18.80;99.90;;;;;;5030052;28;20044;-67
2021/08/21 03:13:40;;;;;;;15.50;9.65;;;18.80;99.90;;;;;;5028844;28;20064;-67
2021/08/21 03:16:44;;;;;;;13.98;9.80;;;18.80;99.90;;;;;;5031501;28;20044;-67
2021/08/21 03:19:50;;;;;;;16.15;10.38;;;18.80;99.90;;;;;;5048523;28;20052;-67
2021/08/21 03:22:55;;;;;;;14.32;10.40;;;18.80;99.90;;;;;;5048850;28;20048;-67
2021/08/21 03:26:06;;;;;;;18.35;10.73;;;18.70;99.90;;;;;;5049148;28;20056;-67
2021/08/21 03:29:14;;;;;;;15.73;9.60;;;18.70;99.90;;;;;;5048674;28;20040;-67
2021/08/21 03:32:20;;;;;;;17.08;10.20;;;18.70;99.90;;;;;;5048973;28;20424;-67
2021/08/21 03:35:27;;;;;;;21.08;9.25;;;18.70;99.90;;;;;;5048791;28;20056;-66
2021/08/21 03:38:32;;;;;;;15.57;9.70;;;18.70;99.90;;;;;;5048633;28;20044;-67
2021/08/21 03:41:44;;;;;;;12.68;8.52;;;18.70;99.90;;;;;;5049018;28;20048;-67
2021/08/21 03:44:48;;;;;;;13.93;9.32;;;18.60;99.90;;;;;;5048815;28;20048;-67
2021/08/21 03:47:52;;;;;;;13.48;8.95;;;18.50;99.90;;;;;;5037059;28;20052;-67
2021/08/21 03:50:56;;;;;;;14.02;9.77;;;18.50;99.90;;;;;;5048838;28;20383;-67
2021/08/21 03:54:00;;;;;;;23.80;12.57;;;18.50;99.90;;;;;;5048690;28;20044;-67
2021/08/21 03:57:05;;;;;;;24.48;15.18;;;18.40;99.90;;;;;;5049072;28;20060;-67
2021/08/21 04:00:10;;;;;;;18.77;12.43;;;18.00;99.90;;;;;;5048661;28;20051;-67
2021/08/21 04:03:20;;;;;;;37.08;17.27;;;17.80;99.90;;;;;;5049196;28;20487;-66
2021/08/21 04:06:25;;;;;;;24.00;13.73;;;17.80;99.90;;;;;;5048892;28;20056;-67
2021/08/21 04:09:30;;;;;;;23.60;14.23;;;17.70;99.90;;;;;;5048107;28;20044;-67
2021/08/21 04:12:36;;;;;;;18.30;11.40;;;17.70;99.90;;;;;;5050060;28;20044;-67
2021/08/21 04:15:50;;;;;;;21.08;12.82;;;17.70;99.90;;;;;;5052234;28;20120;-67
2021/08/21 04:18:54;;;;;;;20.52;11.82;;;17.60;99.90;;;;;;5051898;28;20047;-67
2021/08/21 04:22:00;;;;;;;20.15;13.48;;;17.50;99.90;;;;;;5052112;28;20487;-67
2021/08/21 04:25:23;;;;;;;19.52;12.70;;;17.40;99.90;;;;;;5052703;28;20396;-67
2021/08/21 04:28:35;;;;;;;109.00;23.58;;;17.40;99.90;;;;;;5051964;28;20052;-67
2021/08/21 04:31:43;;;;;;;34.15;20.13;;;17.50;99.90;;;;;;5048924;28;20048;-67
2021/08/21 04:34:48;;;;;;;36.88;20.88;;;17.60;99.90;;;;;;5052297;28;20383;-67
2021/08/21 04:37:54;;;;;;;27.73;17.08;;;17.60;99.90;;;;;;5051076;28;20044;-67
2021/08/21 04:41:00;;;;;;;28.80;17.73;;;17.60;99.90;;;;;;5052262;28;20036;-67
2021/08/21 04:44:04;;;;;;;52.90;20.90;;;17.60;99.90;;;;;;5052080;28;20048;-67
2021/08/21 04:47:08;;;;;;;47.65;20.42;;;17.70;99.90;;;;;;5042555;28;20401;-67
2021/08/21 04:50:13;;;;;;;57.90;21.95;;;17.80;99.90;;;;;;5048666;28;20118;-66
2021/08/21 04:53:17;;;;;;;76.45;22.20;;;17.80;99.90;;;;;;5050966;28;20068;-67
2021/08/21 04:56:23;;;;;;;30.00;16.25;;;17.90;99.90;;;;;;5043583;28;20535;-67
2021/08/21 04:59:58;;;;;;;16.63;12.00;;;18.00;99.90;;;;;;5046594;28;20044;-67
2021/08/21 05:03:02;;;;;;;22.52;12.27;;;18.10;99.90;;;;;;5043016;28;20048;-67
2021/08/21 05:06:08;;;;;;;22.23;11.82;;;18.20;99.90;;;;;;5051126;28;20043;-67
2021/08/21 05:09:12;;;;;;;24.33;15.15;;;18.40;99.90;;;;;;5051218;28;20032;-66
2021/08/21 05:12:17;;;;;;;23.20;13.15;;;18.50;99.90;;;;;;5051414;28;20499;-67
2021/08/21 05:15:33;;;;;;;25.88;13.55;;;18.70;99.90;;;;;;5051166;28;20052;-67
2021/08/21 05:19:13;;;;;;;22.80;11.75;;;18.90;99.90;;;;;;5051537;28;20056;-67
2021/08/21 05:25:24;;;;;;;18.88;11.00;;;21.60;99.90;;;;;;5052369;28;20059;-67
2021/08/21 05:28:28;;;;;;;20.98;10.30;;;23.70;99.90;;;;;;5051569;28;20044;-67
2021/08/21 05:31:33;;;;;;;17.65;10.13;;;25.20;99.90;;;;;;5051798;28;20032;-67
2021/08/21 05:34:40;;;;;;;16.33;11.20;;;26.40;99.90;;;;;;5032284;28;20029;-67
2021/08/21 05:37:44;;;;;;;20.88;10.40;;;26.40;99.90;;;;;;5032637;28;20040;-67
2021/08/21 05:40:48;;;;;;;21.58;10.85;;;26.30;99.90;;;;;;5032593;28;20060;-67
2021/08/21 05:43:53;;;;;;;27.92;10.88;;;26.60;99.90;;;;;;5031957;28;20412;-67
2021/08/21 05:46:57;;;;;;;28.40;13.07;;;27.70;99.90;;;;;;5032411;28;20484;-67
2021/08/21 05:50:02;;;;;;;23.50;12.40;;;27.60;99.90;;;;;;5032063;28;20052;-67
2021/08/21 05:53:06;;;;;;;22.90;12.98;;;27.30;99.90;;;;;;5032463;28;20056;-67
2021/08/21 05:56:11;;;;;;;21.63;10.68;;;27.30;99.90;;;;;;5030387;28;20420;-67
2021/08/21 05:59:16;;;;;;;17.85;9.90;;;26.90;99.90;;;;;;5031091;28;20542;-67
2021/08/21 06:02:20;;;;;;;14.20;9.77;;;25.70;99.90;;;;;;5030293;28;20044;-67
2021/08/21 06:05:25;;;;;;;15.13;8.63;;;25.10;99.90;;;;;;5031083;28;20052;-67
2021/08/21 06:08:35;;;;;;;12.30;7.72;;;25.00;99.90;;;;;;5029879;28;20052;-67
2021/08/21 06:11:39;;;;;;;8.80;6.53;;;24.00;99.90;;;;;;5018733;28;20407;-68
2021/08/21 06:14:44;;;;;;;9.65;6.10;;;24.80;99.90;;;;;;5037540;28;20400;-67
2021/08/21 06:17:48;;;;;;;9.80;6.10;;;25.50;99.90;;;;;;5031365;28;20056;-68
2021/08/21 06:20:52;;;;;;;9.80;5.43;;;25.60;99.90;;;;;;5030863;28;20033;-67
2021/08/21 06:23:56;;;;;;;7.07;5.82;;;26.50;99.90;;;;;;5030667;28;20041;-68
2021/08/21 06:27:00;;;;;;;10.52;6.53;;;27.10;99.90;;;;;;5030693;28;20143;-68
2021/08/21 06:30:06;;;;;;;8.13;5.90;;;26.60;99.90;;;;;;5031938;28;20044;-67
2021/08/21 06:33:11;;;;;;;10.27;7.65;;;27.00;99.90;;;;;;5050327;28;20067;-67
2021/08/21 06:36:15;;;;;;;11.45;7.47;;;28.40;99.90;;;;;;5050849;28;20171;-67
2021/08/21 06:39:19;;;;;;;8.77;6.22;;;29.10;98.50;;;;;;5050783;28;20052;-68
2021/08/21 06:42:23;;;;;;;9.45;7.10;;;29.80;96.70;;;;;;5050811;28;20041;-68
2021/08/21 06:45:46;;;;;;;8.23;5.50;;;29.10;96.60;;;;;;5037967;28;20041;-68
2021/08/21 06:48:50;;;;;;;11.70;6.68;;;29.10;97.00;;;;;;5049745;28;20048;-68
2021/08/21 06:51:55;;;;;;;7.00;5.50;;;29.60;96.80;;;;;;5049978;28;20056;-68
2021/08/21 06:54:59;;;;;;;9.15;5.63;;;30.30;95.50;;;;;;5060619;28;20044;-68
2021/08/21 06:58:03;;;;;;;7.35;4.97;;;31.00;93.80;;;;;;5049016;28;20041;-67
2021/08/21 07:01:10;;;;;;;7.38;4.97;;;30.80;93.80;;;;;;5050128;28;20041;-68
2021/08/21 07:04:15;;;;;;;11.35;4.68;;;31.60;92.30;;;;;;5049663;28;20048;-68
2021/08/21 07:07:19;;;;;;;7.90;4.22;;;32.00;91.10;;;;;;5050141;28;20048;-68
2021/08/21 07:10:23;;;;;;;6.32;4.20;;;32.60;90.30;;;;;;5050098;28;20495;-68
2021/08/21 07:13:27;;;;;;;7.05;4.50;;;32.00;89.20;;;;;;5049794;28;20395;-68
2021/08/21 07:16:31;;;;;;;8.57;4.57;;;31.90;89.50;;;;;;5049525;28;20518;-67
2021/08/21 07:19:35;;;;;;;7.15;3.78;;;32.80;88.00;;;;;;5049775;28;20049;-68
2021/08/21 07:22:39;;;;;;;11.98;3.95;;;33.50;85.30;;;;;;5049629;28;20044;-68
2021/08/21 07:25:44;;;;;;;5.30;4.03;;;33.90;83.50;;;;;;5049585;28;20510;-68
2021/08/21 07:28:48;;;;;;;7.07;4.20;;;32.60;85.10;;;;;;5049213;28;20037;-68
2021/08/21 07:31:54;;;;;;;8.25;4.47;;;31.50;86.70;;;;;;5049958;28;20391;-68
2021/08/21 07:34:59;;;;;;;4.32;3.80;;;29.10;91.20;;;;;;5049637;28;20033;-68
2021/08/21 07:38:04;;;;;;;5.45;3.30;;;29.50;91.70;;;;;;5049015;28;20036;-68
2021/08/21 07:41:11;;;;;;;5.57;3.72;;;30.40;91.50;;;;;;5049340;28;20044;-67
2021/08/21 07:44:15;;;;;;;4.30;3.45;;;31.60;90.30;;;;;;5049548;28;20040;-68
2021/08/21 07:47:19;;;;;;;4.75;3.47;;;31.50;90.40;;;;;;5052273;28;20041;-68
2021/08/21 07:50:23;;;;;;;7.22;3.70;;;31.10;90.40;;;;;;5053772;28;20499;-68
2021/08/21 07:53:27;;;;;;;7.28;3.67;;;31.80;89.10;;;;;;5053573;28;20037;-68
2021/08/21 07:56:31;;;;;;;6.65;4.20;;;33.20;86.60;;;;;;5053344;28;20051;-66
2021/08/21 07:59:35;;;;;;;4.93;3.70;;;30.50;90.20;;;;;;5052336;28;20052;-67
2021/08/21 08:02:46;;;;;;;4.35;3.30;;;31.40;90.20;;;;;;5053059;28;20400;-68
2021/08/21 08:05:51;;;;;;;7.28;3.60;;;33.90;85.60;;;;;;5052238;28;20494;-67
2021/08/21 08:08:54;;;;;;;5.10;3.33;;;32.50;85.80;;;;;;5052891;28;20048;-68
2021/08/21 08:11:59;;;;;;;5.25;3.65;;;33.90;85.20;;;;;;5053528;28;20069;-68
2021/08/21 08:15:03;;;;;;;6.45;3.03;;;34.40;83.50;;;;;;5053942;28;20048;-67
2021/08/21 08:18:07;;;;;;;5.03;3.30;;;35.30;81.80;;;;;;5052885;28;20531;-68
2021/08/21 08:21:15;;;;;;;6.60;3.40;;;34.60;81.20;;;;;;5053129;28;20052;-68
2021/08/21 08:24:19;;;;;;;5.18;3.20;;;37.00;78.60;;;;;;5053266;28;20056;-68
2021/08/21 08:27:23;;;;;;;5.30;2.80;;;36.30;78.10;;;;;;5053289;28;20033;-68
2021/08/21 08:30:28;;;;;;;4.30;2.88;;;38.00;75.20;;;;;;5052940;28;20033;-68
2021/08/21 08:33:33;;;;;;;8.35;3.08;;;38.60;74.00;;;;;;5053005;28;20490;-67
2021/08/21 08:36:38;;;;;;;7.57;2.80;;;38.70;72.70;;;;;;5053324;28;20041;-67
2021/08/21 08:39:42;;;;;;;5.93;3.33;;;38.40;72.20;;;;;;5052631;28;20048;-67
2021/08/21 08:42:46;;;;;;;5.72;3.30;;;36.40;72.50;;;;;;5052701;28;20385;-67
2021/08/21 08:45:50;;;;;;;4.40;3.30;;;36.40;73.10;;;;;;5052650;28;20135;-67
2021/08/21 08:49:00;;;;;;;4.28;3.20;;;36.60;74.20;;;;;;5048515;28;20372;-67
2021/08/21 08:52:06;;;;;;;6.05;3.05;;;37.20;73.00;;;;;;5053364;28;20037;-67
2021/08/21 08:55:12;;;;;;;4.30;3.20;;;36.80;74.00;;;;;;5053152;28;20033;-67
2021/08/21 08:58:16;;;;;;;6.13;3.45;;;37.10;73.70;;;;;;5051243;28;20037;-68
2021/08/21 09:01:21;;;;;;;4.57;3.28;;;38.30;72.00;;;;;;5053358;28;20048;-68
2021/08/21 09:04:26;;;;;;;4.00;3.50;;;37.90;70.40;;;;;;5053193;28;20038;-67
2021/08/21 09:07:51;;;;;;;12.00;3.78;;;35.40;73.10;;;;;;5052966;28;20037;-67
2021/08/21 09:11:17;;;;;;;4.80;3.40;;;35.10;72.80;;;;;;5053152;28;20068;-67
2021/08/21 09:14:30;;;;;;;7.07;3.63;;;35.80;73.60;;;;;;5052317;28;20048;-67
2021/08/21 09:17:35;;;;;;;5.65;3.10;;;36.00;71.90;;;;;;5051856;28;20045;-67
2021/08/21 09:20:48;;;;;;;6.57;3.60;;;37.50;71.50;;;;;;5051876;28;20049;-67
2021/08/21 09:23:53;;;;;;;4.13;2.85;;;38.20;68.80;;;;;;5051791;28;20048;-67
2021/08/21 09:27:21;;;;;;;4.18;3.10;;;40.70;67.40;;;;;;5051249;28;20052;-65
2021/08/21 09:30:27;;;;;;;5.47;3.10;;;42.50;64.20;;;;;;5052192;28;20504;-67
2021/08/21 09:33:31;;;;;;;5.15;2.90;;;44.60;61.50;;;;;;5051680;28;20040;-67
2021/08/21 09:36:41;;;;;;;6.07;2.85;;;42.70;60.10;;;;;;5051966;28;20041;-67
2021/08/21 09:39:45;;;;;;;6.95;3.00;;;40.10;61.50;;;;;;5051345;28;20431;-67
2021/08/21 09:42:49;;;;;;;5.20;2.90;;;40.40;62.30;;;;;;5051322;28;20041;-67
2021/08/21 09:46:26;;;;;;;6.30;2.78;;;41.10;60.70;;;;;;5051523;28;20044;-67
2021/08/21 09:49:31;;;;;;;5.82;3.15;;;40.60;59.50;;;;;;5050886;28;20048;-67
2021/08/21 09:52:35;;;;;;;6.57;2.72;;;42.30;58.60;;;;;;5051162;28;20044;-68
2021/08/21 09:55:40;;;;;;;4.88;2.67;;;43.80;58.20;;;;;;5051362;28;20518;-67
2021/08/21 09:58:52;;;;;;;4.07;3.05;;;40.20;59.10;;;;;;5050621;28;20033;-67
2021/08/21 10:01:59;;;;;;;5.50;2.60;;;41.60;58.50;;;;;;5051323;28;20395;-67
2021/08/21 10:05:03;;;;;;;7.47;3.10;;;44.30;56.40;;;;;;5050704;28;20033;-68
2021/08/21 10:08:11;;;;;;;3.85;2.50;;;44.50;56.30;;;;;;5050501;28;20405;-68
2021/08/21 10:11:16;;;;;;;5.88;2.63;;;46.30;54.30;;;;;;5049934;28;20048;-68
2021/08/21 10:14:23;;;;;;;4.82;2.95;;;41.90;54.00;;;;;;5050921;28;20033;-68
2021/08/21 10:17:30;;;;;;;4.63;2.45;;;39.70;57.90;;;;;;5050121;28;20045;-67
2021/08/21 10:20:36;;;;;;;5.47;2.53;;;41.40;55.60;;;;;;5050840;28;20041;-67
2021/08/21 10:23:46;;;;;;;5.55;2.55;;;41.90;54.70;;;;;;5050805;28;20033;-67
2021/08/21 10:26:55;;;;;;;6.93;2.60;;;41.80;56.20;;;;;;5050809;28;20040;-67
2021/08/21 10:30:04;;;;;;;4.03;2.85;;;42.80;54.30;;;;;;5050575;28;20044;-67
2021/08/21 10:33:09;;;;;;;4.35;2.33;;;44.50;53.50;;;;;;5050723;28;20052;-68
2021/08/21 10:36:48;;;;;;;5.53;2.78;;;46.00;52.30;;;;;;5050817;28;20056;-67
2021/08/21 10:39:52;;;;;;;9.18;2.72;;;48.00;50.60;;;;;;5050196;28;20044;-68
2021/08/21 10:42:59;;;;;;;6.30;2.80;;;48.50;49.70;;;;;;5050497;28;20037;-67
2021/08/21 10:46:03;;;;;;;5.85;3.13;;;41.50;53.50;;;;;;5041718;28;20056;-67
2021/08/21 10:49:08;;;;;;;4.18;3.40;;;40.80;54.90;;;;;;5040738;28;20057;-68
2021/08/21 10:52:47;;;;;;;3.70;2.75;;;40.20;55.80;;;;;;5041242;28;20044;-68
2021/08/21 10:55:52;;;;;;;4.40;3.10;;;42.40;54.00;;;;;;5050065;28;20054;-68
2021/08/21 10:58:55;;;;;;;4.70;2.65;;;44.70;52.60;;;;;;5049773;28;20044;-68
2021/08/21 11:02:35;;;;;;;3.45;2.50;;;45.20;51.60;;;;;;5049604;28;20035;-65
2021/08/21 11:06:00;;;;;;;3.75;2.40;;;47.60;50.50;;;;;;5009923;28;20034;-65
2021/08/21 11:09:10;;;;;;;4.57;2.63;;;49.10;49.20;;;;;;5049592;28;20420;-66
2021/08/21 11:12:35;;;;;;;3.65;2.58;;;50.00;48.40;;;;;;5050323;28;20025;-65
2021/08/21 11:15:39;;;;;;;4.78;2.42;;;50.60;47.70;;;;;;5050165;28;20041;-66
2021/08/21 11:18:48;;;;;;;6.15;2.30;;;50.90;46.80;;;;;;5048921;28;20104;-65
2021/08/21 11:22:12;;;;;;;5.30;3.08;;;50.60;46.60;;;;;;5049841;28;20036;-66
2021/08/21 11:25:24;;;;;;;10.32;3.75;;;49.20;46.40;;;;;;5049742;28;20391;-66
2021/08/21 11:28:30;;;;;;;4.75;2.63;;;48.00;47.00;;;;;;5049558;28;20040;-65
2021/08/21 11:31:59;;;;;;;3.10;2.80;;;45.20;48.70;;;;;;5049839;28;20033;-67
2021/08/21 11:35:05;;;;;;;3.85;2.70;;;44.70;47.40;;;;;;5049717;28;20049;-65
2021/08/21 11:38:12;;;;;;;5.47;2.95;;;46.40;48.40;;;;;;5048690;28;20399;-65
2021/08/21 11:41:16;;;;;;;4.15;2.72;;;45.70;48.00;;;;;;5049929;28;20051;-65
2021/08/21 11:44:31;;;;;;;5.35;2.50;;;47.40;47.70;;;;;;5049669;28;20403;-65
2021/08/21 11:47:36;;;;;;;4.15;2.95;;;48.40;47.50;;;;;;5049940;28;20037;-65
2021/08/21 11:50:45;;;;;;;5.45;2.95;;;45.20;47.70;;;;;;5049261;28;20032;-67
2021/08/21 11:53:49;;;;;;;3.47;2.75;;;46.00;48.20;;;;;;5050077;28;20037;-68
2021/08/21 11:57:01;;;;;;;4.03;2.28;;;47.70;47.40;;;;;;5049750;28;20488;-65
2021/08/21 12:00:18;;;;;;;4.85;3.17;;;48.70;46.50;;;;;;5049289;28;20040;-65
2021/08/21 12:06:50;;;;;;;4.78;2.80;;;44.60;48.40;;;;;;5049539;28;20627;-68
2021/08/21 12:09:58;;;;;;;6.38;3.00;;;41.00;49.50;;;;;;5049153;28;20051;-68
2021/08/21 12:13:02;;;;;;;6.57;3.28;;;40.30;52.60;;;;;;5049654;28;20033;-68
2021/08/21 12:16:07;;;;;;;5.07;3.45;;;41.80;50.70;;;;;;5049831;28;20051;-67
2021/08/21 12:19:11;;;;;;;8.77;3.53;;;44.50;48.80;;;;;;5049080;28;20034;-68
2021/08/21 12:22:16;;;;;;;3.15;2.65;;;46.00;47.70;;;;;;5049375;28;20037;-67
2021/08/21 12:25:20;;;;;;;4.75;2.58;;;45.80;47.40;;;;;;5049108;28;20431;-68
2021/08/21 12:28:33;;;;;;;4.53;2.78;;;44.60;47.90;;;;;;5049068;28;20037;-67
2021/08/21 12:31:39;;;;;;;6.43;3.38;;;39.10;50.70;;;;;;5049200;28;20044;-68
2021/08/21 12:34:43;;;;;;;3.50;3.20;;;38.70;51.70;;;;;;5052283;28;20059;-68
2021/08/21 12:38:07;;;;;;;3.75;3.20;;;37.20;53.10;;;;;;5053020;28;20404;-67
2021/08/21 12:41:17;;;;;;;5.70;3.47;;;39.60;51.60;;;;;;5052564;28;20041;-67
2021/08/21 12:44:24;;;;;;;8.68;3.42;;;39.20;51.10;;;;;;5053441;28;20049;-67
2021/08/21 12:47:36;;;;;;;8.30;3.72;;;41.00;51.00;;;;;;5052719;28;20492;-67
2021/08/21 12:50:42;;;;;;;4.15;2.80;;;41.60;49.50;;;;;;5052491;28;20034;-67
2021/08/21 12:53:47;;;;;;;5.30;2.88;;;42.10;49.60;;;;;;5052980;28;20037;-67
2021/08/21 12:57:14;;;;;;;4.18;2.72;;;43.90;48.10;;;;;;5052436;28;20044;-67
2021/08/21 13:00:19;;;;;;;5.95;2.92;;;44.70;47.70;;;;;;5052828;28;20037;-68
2021/08/21 13:03:23;;;;;;;6.30;3.05;;;44.20;47.50;;;;;;5051350;28;20040;-69
2021/08/21 13:06:28;;;;;;;7.30;3.05;;;45.30;46.00;;;;;;5052597;28;20111;-66
2021/08/21 13:09:32;;;;;;;5.35;2.83;;;43.00;47.40;;;;;;5051039;28;20045;-67
2021/08/21 13:12:36;;;;;;;3.95;2.80;;;42.20;47.80;;;;;;5052215;28;20396;-66
2021/08/21 13:15:40;;;;;;;8.80;3.28;;;43.00;47.50;;;;;;5052153;28;20045;-67
2021/08/21 13:18:46;;;;;;;5.25;3.05;;;43.60;46.60;;;;;;5051823;28;20033;-67
2021/08/21 13:21:51;;;;;;;3.47;2.72;;;44.10;46.50;;;;;;5051667;28;20036;-67
2021/08/21 13:24:56;;;;;;;5.82;3.20;;;43.80;46.20;;;;;;5051389;28;20044;-66
2021/08/21 13:28:00;;;;;;;4.50;2.60;;;44.00;46.50;;;;;;5051641;28;20048;-66
2021/08/21 13:31:05;;;;;;;7.43;2.90;;;44.30;46.50;;;;;;5051846;28;20163;-67
2021/08/21 13:34:09;;;;;;;5.90;2.75;;;44.30;46.30;;;;;;5052009;28;20604;-66
2021/08/21 13:37:16;;;;;;;7.45;3.00;;;43.80;46.40;;;;;;5051710;28;20536;-67
2021/08/21 13:40:21;;;;;;;3.97;2.90;;;43.80;46.70;;;;;;5051955;28;20037;-68
2021/08/21 13:43:26;;;;;;;3.78;2.80;;;43.40;46.90;;;;;;5051825;28;20041;-66
2021/08/21 13:46:35;;;;;;;3.25;2.80;;;43.40;47.30;;;;;;5051791;28;20040;-67
2021/08/21 13:49:40;;;;;;;8.90;3.10;;;43.00;47.80;;;;;;5051353;28;20051;-66
2021/08/21 13:52:45;;;;;;;4.25;2.95;;;42.50;48.00;;;;;;5050543;28;20037;-67
2021/08/21 13:55:49;;;;;;;6.25;3.00;;;41.90;47.80;;;;;;5051579;28;20052;-66
2021/08/21 13:58:54;;;;;;;3.97;2.80;;;41.90;47.90;;;;;;5051522;28;20045;-66
2021/08/21 14:01:58;;;;;;;6.63;2.80;;;41.80;48.10;;;;;;5051315;28;20056;-65
2021/08/21 14:05:02;;;;;;;4.93;3.10;;;41.10;49.20;;;;;;5051317;28;20047;-67
2021/08/21 14:08:07;;;;;;;12.95;3.45;;;40.90;49.10;;;;;;5027330;28;20036;-66
2021/08/21 14:11:12;;;;;;;4.40;3.47;;;38.30;50.10;;;;;;5051341;28;20099;-67
2021/08/21 14:14:17;;;;;;;6.63;3.13;;;38.60;50.40;;;;;;5051173;28;20057;-67
2021/08/21 14:17:21;;;;;;;5.25;3.17;;;39.00;50.00;;;;;;5051343;28;20052;-67
2021/08/21 14:20:25;;;;;;;6.03;3.33;;;39.60;50.00;;;;;;5051262;28;20514;-66
2021/08/21 14:23:29;;;;;;;5.95;3.03;;;39.90;50.40;;;;;;5051034;28;20052;-65
2021/08/21 14:26:33;;;;;;;4.63;2.80;;;39.60;50.00;;;;;;5051388;28;20041;-66
2021/08/21 14:29:37;;;;;;;4.95;3.08;;;39.50;50.40;;;;;;5049692;28;20391;-67
2021/08/21 14:32:41;;;;;;;6.00;3.08;;;39.40;50.00;;;;;;5049847;28;20044;-67
2021/08/21 14:35:45;;;;;;;3.33;2.70;;;39.30;50.20;;;;;;5051247;28;20044;-67
2021/08/21 14:38:49;;;;;;;6.70;2.67;;;39.40;50.00;;;;;;5050409;28;20489;-66
2021/08/21 14:41:54;;;;;;;7.55;2.95;;;39.00;50.10;;;;;;5049795;28;20388;-67
2021/08/21 14:44:57;;;;;;;7.68;3.00;;;38.80;50.10;;;;;;5050580;28;20044;-67
2021/08/21 14:48:03;;;;;;;4.82;2.70;;;38.90;50.10;;;;;;5050480;28;20534;-67
2021/08/21 14:51:09;;;;;;;4.50;2.60;;;39.10;50.00;;;;;;5049971;28;20041;-66
2021/08/21 14:54:14;;;;;;;3.15;2.70;;;39.00;50.30;;;;;;5050511;28;20044;-66
2021/08/21 14:57:18;;;;;;;4.43;2.63;;;38.60;51.20;;;;;;5049025;28;20037;-65
2021/08/21 15:00:23;;;;;;;6.65;3.38;;;38.40;51.60;;;;;;5050272;28;20538;-66
2021/08/21 15:03:27;;;;;;;4.88;2.92;;;37.90;51.40;;;;;;5050245;28;20040;-66
2021/08/21 15:06:31;;;;;;;6.65;3.17;;;37.50;51.70;;;;;;5050225;28;20045;-66
2021/08/21 15:09:36;;;;;;;8.45;3.38;;;37.00;52.50;;;;;;5050253;28;20131;-66
2021/08/21 15:12:43;;;;;;;4.47;3.38;;;36.40;53.00;;;;;;5050205;28;20379;-67
2021/08/21 15:15:48;;;;;;;9.45;3.95;;;36.20;53.30;;;;;;5049893;28;20498;-66
2021/08/21 15:18:52;;;;;;;4.63;3.40;;;36.00;53.10;;;;;;5049572;28;20044;-66
2021/08/21 15:21:56;;;;;;;9.82;3.30;;;36.20;53.50;;;;;;5049866;28;20044;-66
2021/08/21 15:25:00;;;;;;;6.05;3.05;;;36.30;53.80;;;;;;5050372;28;20618;-65
2021/08/21 15:28:06;;;;;;;6.38;3.20;;;36.00;53.40;;;;;;5048814;28;20048;-66
2021/08/21 15:31:10;;;;;;;5.35;2.95;;;35.90;53.60;;;;;;5049566;28;20047;-67
2021/08/21 15:34:16;;;;;;;9.20;3.58;;;36.00;53.40;;;;;;5049909;28;20043;-66
2021/08/21 15:37:20;;;;;;;6.95;3.08;;;36.00;53.40;;;;;;5037275;28;20040;-66
2021/08/21 15:40:25;;;;;;;6.35;3.15;;;35.70;53.40;;;;;;5049553;28;20048;-66
2021/08/21 15:43:33;;;;;;;5.47;2.90;;;35.50;53.90;;;;;;5049841;28;20040;-66
2021/08/21 15:46:39;;;;;;;8.43;3.38;;;35.50;54.00;;;;;;5049800;28;20056;-66
2021/08/21 15:49:48;;;;;;;7.57;3.20;;;35.40;53.80;;;;;;5049812;28;20032;-66
2021/08/21 15:52:52;;;;;;;8.98;3.30;;;35.30;54.20;;;;;;5049332;28;20044;-67
2021/08/21 15:55:56;;;;;;;6.85;3.13;;;35.40;54.20;;;;;;5049310;28;20039;-66
2021/08/21 15:59:00;;;;;;;5.28;3.60;;;35.20;54.40;;;;;;5049520;28;20044;-66
2021/08/21 16:02:05;;;;;;;7.32;3.33;;;35.10;54.80;;;;;;5049431;28;20051;-66
2021/08/21 16:05:09;;;;;;;6.35;3.42;;;34.90;55.30;;;;;;5049737;28;20067;-66
2021/08/21 16:08:14;;;;;;;7.15;3.60;;;34.70;56.00;;;;;;5050864;28;20039;-66
2021/08/21 16:11:18;;;;;;;7.95;3.40;;;34.50;57.20;;;;;;5053484;28;20048;-66
2021/08/21 16:14:22;;;;;;;14.50;3.92;;;34.50;58.00;;;;;;5053612;28;20040;-66